createdAt,value
2022-09-07T00:01:08.612Z,100.00
2022-09-07T00:03:36.671Z,100.00
2022-09-07T00:06:12.520Z,100.00
2022-09-07T00:08:41.013Z,100.00
2022-09-07T00:11:15.839Z,100.00
2022-09-07T00:13:45.737Z,100.00
2022-09-07T00:16:19.219Z,100.00
2022-09-07T00:18:46.720Z,100.00
2022-09-07T00:21:16.363Z,100.00
2022-09-07T00:23:46.128Z,100.00
2022-09-07T00:26:16.135Z,100.00
2022-09-07T00:28:45.816Z,100.00
2022-09-07T00:31:19.656Z,100.00
2022-09-07T00:33:49.123Z,100.00
2022-09-07T00:36:17.493Z,100.00
2022-09-07T00:38:44.901Z,100.00
2022-09-07T00:41:12.099Z,100.00
2022-09-07T00:43:42.055Z,100.00
2022-09-07T00:46:38.585Z,100.00
2022-09-07T00:49:08.870Z,100.00
2022-09-07T00:51:53.121Z,100.00
2022-09-07T00:54:34.320Z,100.00
2022-09-07T00:57:01.664Z,100.00
2022-09-07T00:59:40.023Z,100.00
2022-09-07T01:02:08.395Z,100.00
2022-09-07T01:04:36.489Z,100.00
2022-09-07T01:07:06.422Z,100.00
2022-09-07T01:09:33.546Z,100.00
2022-09-07T01:12:02.195Z,100.00
2022-09-07T01:14:40.362Z,100.00
2022-09-07T01:17:13.245Z,100.00
2022-09-07T01:20:12.335Z,100.00
2022-09-07T01:22:45.581Z,100.00
2022-09-07T01:25:18.884Z,100.00
2022-09-07T01:28:22.894Z,100.00
2022-09-07T01:31:10.301Z,100.00
2022-09-07T01:33:46.599Z,100.00
2022-09-07T01:36:17.884Z,100.00
2022-09-07T01:39:08.318Z,100.00
2022-09-07T01:41:52.017Z,100.00
2022-09-07T01:44:28.654Z,100.00
2022-09-07T01:47:09.778Z,100.00
2022-09-07T01:49:42.186Z,100.00
2022-09-07T01:52:41.141Z,100.00
2022-09-07T01:55:18.838Z,100.00
2022-09-07T01:57:54.780Z,100.00
2022-09-07T02:00:23.230Z,100.00
2022-09-07T02:03:04.674Z,100.00
2022-09-07T02:05:43.141Z,100.00
2022-09-07T02:08:18.964Z,100.00
2022-09-07T02:10:52.423Z,100.00
2022-09-07T02:13:28.313Z,100.00
2022-09-07T02:16:11.184Z,100.00
2022-09-07T02:18:44.587Z,100.00
2022-09-07T02:21:15.592Z,100.00
2022-09-07T02:24:07.897Z,100.00
2022-09-07T02:26:38.812Z,100.00
2022-09-07T02:29:08.575Z,100.00
2022-09-07T02:31:35.635Z,100.00
2022-09-07T02:34:03.349Z,100.00
2022-09-07T02:36:35.528Z,100.00
2022-09-07T02:39:02.611Z,100.00
2022-09-07T02:41:31.932Z,100.00
2022-09-07T02:44:00.095Z,100.00
2022-09-07T02:47:04.669Z,100.00
2022-09-07T02:49:44.196Z,100.00
2022-09-07T02:52:46.780Z,100.00
2022-09-07T02:55:40.963Z,100.00
2022-09-07T02:58:32.707Z,100.00
2022-09-07T03:01:33.397Z,100.00
2022-09-07T03:04:20.725Z,100.00
2022-09-07T03:07:13.541Z,100.00
2022-09-07T03:09:49.619Z,100.00
2022-09-07T03:12:17.418Z,100.00
2022-09-07T03:14:45.326Z,100.00
2022-09-07T03:17:13.987Z,100.00
2022-09-07T03:19:41.323Z,100.00
2022-09-07T03:22:08.481Z,100.00
2022-09-07T03:24:36.819Z,100.00
2022-09-07T03:27:04.094Z,100.00
2022-09-07T03:29:31.162Z,100.00
2022-09-07T03:31:58.119Z,100.00
2022-09-07T03:34:25.404Z,100.00
2022-09-07T03:36:52.506Z,100.00
2022-09-07T03:39:23.943Z,100.00
2022-09-07T03:41:51.253Z,100.00
2022-09-07T03:44:18.492Z,100.00
2022-09-07T03:46:45.651Z,100.00
2022-09-07T03:49:15.330Z,100.00
2022-09-07T03:51:42.287Z,100.00
2022-09-07T03:54:09.269Z,100.00
2022-09-07T03:56:36.510Z,100.00
2022-09-07T03:59:03.700Z,100.00
2022-09-07T04:01:30.800Z,100.00
2022-09-07T04:04:02.110Z,100.00
2022-09-07T04:06:30.751Z,100.00
2022-09-07T04:09:02.019Z,100.00
2022-09-07T04:11:29.190Z,100.00
2022-09-07T04:13:56.139Z,100.00
2022-09-07T04:16:25.280Z,100.00
2022-09-07T04:18:57.991Z,100.00
2022-09-07T04:21:27.096Z,100.00
2022-09-07T04:23:54.446Z,100.00
2022-09-07T04:26:24.367Z,100.00
2022-09-07T04:28:52.175Z,100.00
2022-09-07T04:31:20.704Z,100.00
2022-09-07T04:33:49.254Z,100.00
2022-09-07T04:36:18.078Z,100.00
2022-09-07T04:38:53.383Z,100.00
2022-09-07T04:41:25.167Z,100.00
2022-09-07T04:43:55.226Z,100.00
2022-09-07T04:46:25.601Z,100.00
2022-09-07T04:48:55.224Z,100.00
2022-09-07T04:51:25.147Z,100.00
2022-09-07T04:53:55.891Z,100.00
2022-09-07T04:56:23.941Z,100.00
2022-09-07T04:58:51.676Z,100.00
2022-09-07T05:01:21.520Z,100.00
2022-09-07T05:03:49.923Z,100.00
2022-09-07T05:06:19.187Z,100.00
2022-09-07T05:08:49.736Z,100.00
2022-09-07T05:11:18.450Z,100.00
2022-09-07T05:13:45.809Z,100.00
2022-09-07T05:16:15.609Z,100.00
2022-09-07T05:18:42.942Z,100.00
2022-09-07T05:21:12.093Z,100.00
2022-09-07T05:23:39.770Z,100.00
2022-09-07T05:26:07.068Z,100.00
2022-09-07T05:28:35.294Z,100.00
2022-09-07T05:31:18.603Z,100.00
2022-09-07T05:36:44.711Z,100.00
2022-09-07T05:39:12.076Z,100.00
2022-09-07T05:41:39.175Z,100.00
2022-09-07T05:46:54.372Z,100.00
2022-09-07T05:49:21.406Z,100.00
2022-09-07T05:51:48.845Z,100.00
2022-09-07T05:54:15.990Z,100.00
2022-09-07T05:56:43.963Z,100.00
2022-09-07T05:59:13.525Z,100.00
2022-09-07T06:01:40.838Z,100.00
2022-09-07T06:04:08.842Z,100.00
2022-09-07T06:06:40.676Z,100.00
2022-09-07T06:09:11.482Z,100.00
2022-09-07T06:11:41.063Z,100.00
2022-09-07T06:14:08.304Z,100.00
2022-09-07T06:16:35.728Z,100.00
2022-09-07T06:19:08.726Z,100.00
2022-09-07T06:21:39.591Z,100.00
2022-09-07T06:24:06.959Z,100.00
2022-09-07T06:26:34.322Z,100.00
2022-09-07T06:29:02.719Z,100.00
2022-09-07T06:31:30.150Z,100.00
2022-09-07T06:33:57.546Z,100.00
2022-09-07T06:36:27.876Z,100.00
2022-09-07T06:38:59.076Z,100.00
2022-09-07T06:44:25.347Z,100.00
2022-09-07T06:47:07.747Z,100.00
2022-09-07T06:49:35.125Z,100.00
2022-09-07T06:52:03.396Z,100.00
2022-09-07T06:57:23.097Z,100.00
2022-09-07T06:59:55.441Z,81.65
2022-09-07T07:02:22.706Z,73.22
2022-09-07T07:04:50.210Z,71.13
2022-09-07T07:07:17.454Z,68.92
2022-09-07T07:09:47.062Z,65.46
2022-09-07T07:12:14.108Z,62.26
2022-09-07T07:14:44.896Z,59.05
2022-09-07T07:17:13.037Z,57.72
2022-09-07T07:19:40.151Z,57.26
2022-09-07T07:22:29.139Z,53.68
2022-09-07T07:24:56.662Z,56.01
2022-09-07T07:27:23.977Z,54.65
2022-09-07T07:29:52.524Z,49.19
2022-09-07T07:32:19.869Z,47.47
2022-09-07T07:34:46.925Z,49.09
2022-09-07T07:37:15.109Z,51.32
2022-09-07T07:42:30.507Z,54.29
2022-09-07T07:47:53.504Z,48.68
2022-09-07T07:50:35.990Z,48.77
2022-09-07T07:55:50.944Z,47.37
2022-09-07T07:58:18.565Z,50.36
2022-09-07T08:00:55.458Z,49.52
2022-09-07T08:03:24.191Z,48.38
2022-09-07T08:05:53.601Z,48.54
2022-09-07T08:08:24.166Z,48.37
2022-09-07T08:10:52.211Z,44.97
2022-09-07T08:13:19.350Z,47.09
2022-09-07T08:15:48.458Z,45.37
2022-09-07T08:18:19.106Z,43.34
2022-09-07T08:20:46.665Z,43.39
2022-09-07T08:23:14.773Z,45.27
2022-09-07T08:25:52.845Z,45.29
2022-09-07T08:28:23.825Z,45.28
2022-09-07T08:30:51.049Z,45.43
2022-09-07T08:33:18.255Z,44.45
2022-09-07T08:36:02.887Z,43.57
2022-09-07T08:38:32.098Z,44.22
2022-09-07T08:41:00.097Z,42.27
2022-09-07T08:43:49.275Z,44.35
2022-09-07T08:46:42.574Z,44.08
2022-09-07T08:49:40.609Z,46.77
2022-09-07T08:52:48.396Z,43.32
2022-09-07T08:55:21.999Z,42.34
2022-09-07T08:57:57.270Z,42.98
2022-09-07T09:00:24.292Z,42.70
2022-09-07T09:06:05.241Z,44.98
2022-09-07T09:09:03.731Z,45.93
2022-09-07T09:11:49.649Z,46.41
2022-09-07T09:14:23.281Z,45.40
2022-09-07T09:16:57.221Z,47.64
2022-09-07T09:19:39.848Z,46.29
2022-09-07T09:22:13.759Z,47.34
2022-09-07T09:25:07.612Z,48.10
2022-09-07T09:27:34.602Z,50.99
2022-09-07T09:30:18.708Z,50.00
2022-09-07T09:32:48.543Z,51.33
2022-09-07T09:35:34.518Z,51.14
2022-09-07T09:38:04.113Z,53.02
2022-09-07T09:40:34.063Z,51.48
2022-09-07T09:43:03.795Z,51.22
2022-09-07T09:48:36.881Z,52.13
2022-09-07T09:54:07.938Z,53.16
2022-09-07T09:56:40.926Z,52.21
2022-09-07T10:05:29.534Z,52.70
2022-09-07T10:07:57.160Z,54.76
2022-09-07T10:10:26.510Z,55.45
2022-09-07T10:12:55.251Z,53.87
2022-09-07T10:15:41.722Z,57.79
2022-09-07T10:18:21.454Z,55.80
2022-09-07T10:20:49.009Z,54.81
2022-09-07T10:23:23.940Z,54.62
2022-09-07T10:25:53.697Z,54.52
2022-09-07T10:28:23.935Z,54.46
2022-09-07T10:31:14.726Z,55.71
2022-09-07T10:34:26.154Z,53.96
2022-09-07T10:37:03.031Z,53.79
2022-09-07T10:39:37.253Z,55.06
2022-09-07T10:42:29.367Z,53.14
2022-09-07T10:45:08.599Z,51.93
2022-09-07T10:47:53.241Z,54.59
2022-09-07T10:50:47.866Z,52.47
2022-09-07T10:53:42.299Z,54.57
2022-09-07T10:56:21.034Z,53.23
2022-09-07T10:59:06.454Z,51.73
2022-09-07T11:01:48.862Z,53.20
2022-09-07T11:04:18.734Z,51.91
2022-09-07T11:06:52.207Z,52.43
2022-09-07T11:09:50.970Z,52.89
2022-09-07T11:12:27.916Z,54.22
2022-09-07T11:15:15.107Z,54.39
2022-09-07T11:17:55.135Z,53.74
2022-09-07T11:20:27.043Z,52.24
2022-09-07T11:23:12.210Z,52.42
2022-09-07T11:25:54.165Z,52.50
2022-09-07T11:28:26.345Z,52.40
2022-09-07T11:31:00.558Z,52.02
2022-09-07T11:33:36.481Z,52.64
2022-09-07T11:36:13.205Z,51.83
2022-09-07T11:38:57.635Z,53.75
2022-09-07T11:41:29.549Z,52.59
2022-09-07T11:44:02.688Z,53.48
2022-09-07T11:46:38.267Z,53.74
2022-09-07T11:49:13.163Z,51.59
2022-09-07T11:51:46.534Z,52.86
2022-09-07T11:54:22.651Z,52.32
2022-09-07T11:57:08.407Z,52.06
2022-09-07T11:59:38.565Z,53.42
2022-09-07T12:02:18.657Z,51.69
2022-09-07T12:05:06.511Z,51.53
2022-09-07T12:07:36.372Z,53.32
2022-09-07T12:10:06.918Z,52.48
2022-09-07T12:12:43.855Z,52.47
2022-09-07T12:15:32.989Z,52.93
2022-09-07T12:18:24.513Z,53.09
2022-09-07T12:20:52.075Z,52.33
2022-09-07T12:23:25.508Z,52.36
2022-09-07T12:26:34.323Z,52.08
2022-09-07T12:29:01.766Z,52.53
2022-09-07T12:31:57.144Z,51.26
2022-09-07T12:34:31.402Z,52.02
2022-09-07T12:37:03.627Z,52.03
2022-09-07T12:39:35.139Z,51.24
2022-09-07T12:45:30.090Z,52.46
2022-09-07T12:47:59.866Z,51.49
2022-09-07T12:50:40.157Z,50.95
2022-09-07T12:53:13.823Z,51.08
2022-09-07T12:59:16.061Z,50.48
2022-09-07T13:02:07.728Z,51.00
2022-09-07T13:04:46.969Z,50.67
2022-09-07T13:07:19.387Z,50.77
2022-09-07T13:10:36.288Z,50.66
2022-09-07T13:13:14.883Z,51.18
2022-09-07T13:15:51.355Z,51.94
2022-09-07T13:18:30.366Z,51.98
2022-09-07T13:21:09.774Z,52.07
2022-09-07T13:23:38.133Z,50.92
2022-09-07T13:26:12.421Z,51.20
2022-09-07T13:28:56.424Z,51.98
2022-09-07T13:31:38.827Z,51.41
2022-09-07T13:34:33.833Z,50.76
2022-09-07T13:37:03.301Z,51.38
2022-09-07T13:39:45.641Z,51.32
2022-09-07T13:42:22.643Z,50.62
2022-09-07T13:44:55.719Z,50.75
2022-09-07T13:47:40.393Z,50.58
2022-09-07T13:50:22.264Z,52.05
2022-09-07T13:53:14.038Z,52.65
2022-09-07T13:55:51.667Z,52.45
2022-09-07T13:58:39.689Z,51.73
2022-09-07T14:01:13.054Z,52.43
2022-09-07T14:03:51.743Z,52.76
2022-09-07T14:06:21.733Z,52.68
2022-09-07T14:08:54.379Z,52.87
2022-09-07T14:11:29.386Z,52.49
2022-09-07T14:14:11.673Z,52.20
2022-09-07T14:16:39.325Z,51.58
2022-09-07T14:19:18.827Z,51.33
2022-09-07T14:21:56.887Z,51.63
2022-09-07T14:24:31.105Z,50.42
2022-09-07T14:26:58.713Z,50.00
2022-09-07T14:29:32.219Z,50.01
2022-09-07T14:32:02.059Z,50.24
2022-09-07T14:34:37.635Z,50.35
2022-09-07T14:37:12.469Z,50.65
2022-09-07T14:39:42.621Z,50.73
2022-09-07T14:42:15.228Z,51.12
2022-09-07T14:44:45.638Z,50.81
2022-09-07T14:47:29.188Z,51.88
2022-09-07T14:50:05.206Z,51.49
2022-09-07T14:52:43.093Z,52.17
2022-09-07T14:55:28.536Z,51.55
2022-09-07T14:58:25.513Z,51.33
2022-09-07T15:03:56.845Z,50.86
2022-09-07T15:09:39.751Z,50.01
2022-09-07T15:12:38.852Z,50.79
2022-09-07T15:15:27.375Z,50.73
2022-09-07T15:18:02.865Z,50.32
2022-09-07T15:20:44.409Z,50.16
2022-09-07T15:23:14.277Z,50.39
2022-09-07T15:25:49.825Z,49.99
2022-09-07T15:34:12.889Z,49.91
2022-09-07T15:36:42.796Z,50.46
2022-09-07T15:39:36.204Z,50.88
2022-09-07T15:44:54.837Z,51.86
2022-09-07T15:50:11.964Z,52.14
2022-09-07T15:52:41.720Z,51.80
2022-09-07T15:55:09.346Z,52.48
2022-09-07T15:58:02.270Z,52.53
2022-09-07T16:00:23.712Z,52.87
2022-09-07T16:03:08.166Z,53.26
2022-09-07T16:05:35.975Z,53.14
2022-09-07T16:10:54.067Z,54.75
2022-09-07T16:13:24.525Z,55.55
2022-09-07T16:15:52.314Z,56.01
2022-09-07T16:18:19.741Z,56.46
2022-09-07T16:20:47.520Z,56.80
2022-09-07T16:23:19.199Z,57.67
2022-09-07T16:25:57.966Z,58.68
2022-09-07T16:28:25.823Z,59.62
2022-09-07T16:30:52.891Z,59.05
2022-09-07T16:33:19.986Z,57.71
2022-09-07T16:35:59.602Z,58.11
2022-09-07T16:38:47.396Z,56.29
2022-09-07T16:41:23.310Z,56.14
2022-09-07T16:43:50.773Z,55.73
2022-09-07T16:46:20.960Z,55.70
2022-09-07T16:48:48.550Z,56.02
2022-09-07T16:51:22.790Z,56.16
2022-09-07T16:53:52.983Z,56.73
2022-09-07T16:56:24.513Z,56.60
2022-09-07T16:58:56.733Z,56.07
2022-09-07T17:01:29.454Z,57.02
2022-09-07T17:03:57.064Z,57.92
2022-09-07T17:06:26.876Z,59.22
2022-09-07T17:08:55.106Z,58.72
2022-09-07T17:11:29.508Z,58.84
2022-09-07T17:13:59.297Z,59.37
2022-09-07T17:16:30.229Z,59.54
2022-09-07T17:21:48.329Z,60.67
2022-09-07T17:24:19.780Z,60.87
2022-09-07T17:26:47.600Z,62.06
2022-09-07T17:29:14.700Z,62.40
2022-09-07T17:34:31.709Z,64.06
2022-09-07T17:37:01.731Z,65.37
2022-09-07T17:39:29.406Z,66.96
2022-09-07T17:41:56.877Z,69.02
2022-09-07T17:44:23.916Z,71.02
2022-09-07T17:46:51.803Z,70.77
2022-09-07T17:49:19.230Z,71.45
2022-09-07T17:51:46.793Z,72.06
2022-09-07T17:54:16.815Z,72.65
2022-09-07T17:56:45.135Z,73.43
2022-09-07T18:02:01.136Z,75.00
2022-09-07T18:04:29.171Z,78.32
2022-09-07T18:06:56.677Z,78.93
2022-09-07T18:09:24.734Z,80.37
2022-09-07T18:11:52.408Z,81.91
2022-09-07T18:14:20.261Z,83.15
2022-09-07T18:16:50.130Z,85.56
2022-09-07T18:19:18.636Z,86.08
2022-09-07T18:21:48.185Z,86.82
2022-09-07T18:24:22.574Z,87.91
2022-09-07T18:26:52.778Z,89.88
2022-09-07T18:29:33.699Z,94.34
2022-09-07T18:32:08.922Z,94.48
2022-09-07T18:34:40.557Z,95.20
2022-09-07T18:37:08.930Z,94.91
2022-09-07T18:39:37.023Z,95.91
2022-09-07T18:42:05.036Z,97.49
2022-09-07T18:47:28.406Z,100.00
2022-09-07T18:49:57.395Z,100.00
2022-09-07T18:55:14.137Z,100.00
2022-09-07T18:57:42.582Z,100.00
2022-09-07T19:00:12.876Z,100.00
2022-09-07T19:02:41.287Z,100.00
2022-09-07T19:08:00.000Z,100.00
2022-09-07T19:10:27.969Z,100.00
2022-09-07T19:12:56.376Z,100.00
2022-09-07T19:15:24.179Z,100.00
2022-09-07T19:17:51.983Z,100.00
2022-09-07T19:20:19.381Z,100.00
2022-09-07T19:22:46.844Z,100.00
2022-09-07T19:25:14.525Z,100.00
2022-09-07T19:27:42.172Z,100.00
2022-09-07T19:30:12.397Z,100.00
2022-09-07T19:32:40.831Z,100.00
2022-09-07T19:35:08.523Z,100.00
2022-09-07T19:37:40.959Z,100.00
2022-09-07T19:40:11.975Z,100.00
2022-09-07T19:42:41.098Z,100.00
2022-09-07T19:45:09.020Z,100.00
2022-09-07T19:47:39.136Z,100.00
2022-09-07T19:50:06.902Z,100.00
2022-09-07T19:52:36.695Z,100.00
2022-09-07T19:55:04.809Z,100.00
2022-09-07T19:57:32.773Z,100.00
2022-09-07T20:00:00.672Z,100.00
2022-09-07T20:02:28.325Z,100.00
2022-09-07T20:04:56.069Z,100.00
2022-09-07T20:07:23.855Z,100.00
2022-09-07T20:09:54.123Z,100.00
2022-09-07T20:12:23.695Z,100.00
2022-09-07T20:14:51.126Z,100.00
2022-09-07T20:17:18.756Z,100.00
2022-09-07T20:19:46.049Z,100.00
2022-09-07T20:22:13.395Z,100.00
2022-09-07T20:24:41.170Z,100.00
2022-09-07T20:27:08.739Z,100.00
2022-09-07T20:29:36.286Z,100.00
2022-09-07T20:32:06.189Z,100.00
2022-09-07T20:34:33.807Z,100.00
2022-09-07T20:37:01.735Z,100.00
2022-09-07T20:39:29.252Z,100.00
2022-09-07T20:41:56.321Z,100.00
2022-09-07T20:44:23.497Z,100.00
2022-09-07T20:46:53.735Z,100.00
2022-09-07T20:49:21.517Z,100.00
2022-09-07T20:51:48.525Z,100.00
2022-09-07T20:54:18.262Z,100.00
2022-09-07T20:56:45.327Z,100.00
2022-09-07T20:59:12.702Z,100.00
2022-09-07T21:01:40.413Z,100.00
2022-09-07T21:04:07.482Z,100.00
2022-09-07T21:06:34.984Z,100.00
2022-09-07T21:09:05.194Z,100.00
2022-09-07T21:11:34.502Z,100.00
2022-09-07T21:14:06.774Z,100.00
2022-09-07T21:16:35.262Z,100.00
2022-09-07T21:19:06.105Z,100.00
2022-09-07T21:21:42.227Z,100.00
2022-09-07T21:24:19.947Z,100.00
2022-09-07T21:26:48.412Z,100.00
2022-09-07T21:29:24.244Z,100.00
2022-09-07T21:31:55.059Z,100.00
2022-09-07T21:34:23.419Z,100.00
2022-09-07T21:36:51.309Z,100.00
2022-09-07T21:39:18.787Z,100.00
2022-09-07T21:41:46.287Z,100.00
2022-09-07T21:44:18.219Z,100.00
2022-09-07T21:46:45.372Z,100.00
2022-09-07T21:49:12.701Z,100.00
2022-09-07T21:51:42.201Z,100.00
2022-09-07T21:54:09.650Z,100.00
2022-09-07T21:56:36.903Z,100.00
2022-09-07T21:59:08.762Z,100.00
2022-09-07T22:01:35.710Z,100.00
2022-09-07T22:04:04.812Z,100.00
2022-09-07T22:06:35.201Z,100.00
2022-09-07T22:09:03.725Z,100.00
2022-09-07T22:11:31.533Z,100.00
2022-09-07T22:14:01.621Z,100.00
2022-09-07T22:16:29.313Z,100.00
2022-09-07T22:18:58.707Z,100.00
2022-09-07T22:21:28.018Z,100.00
2022-09-07T22:23:57.564Z,100.00
2022-09-07T22:26:27.464Z,100.00
2022-09-07T22:28:55.726Z,100.00
2022-09-07T22:31:28.807Z,100.00
2022-09-07T22:33:57.219Z,100.00
2022-09-07T22:36:27.220Z,100.00
2022-09-07T22:38:56.624Z,100.00
2022-09-07T22:41:27.164Z,100.00
2022-09-07T22:43:54.922Z,100.00
2022-09-07T22:46:23.464Z,100.00
2022-09-07T22:48:51.075Z,100.00
2022-09-07T22:51:17.962Z,100.00
2022-09-07T22:53:44.999Z,100.00
2022-09-07T22:56:22.181Z,100.00
2022-09-07T22:58:51.981Z,100.00
2022-09-07T23:01:19.641Z,100.00
2022-09-07T23:03:47.019Z,100.00
2022-09-07T23:06:23.005Z,100.00
2022-09-07T23:08:51.701Z,100.00
2022-09-07T23:11:22.938Z,100.00
2022-09-07T23:13:52.749Z,100.00
2022-09-07T23:16:21.047Z,100.00
2022-09-07T23:18:48.390Z,100.00
2022-09-07T23:24:46.983Z,100.00
2022-09-07T23:27:15.189Z,100.00
2022-09-07T23:29:45.053Z,100.00
2022-09-07T23:32:12.694Z,100.00
2022-09-07T23:34:41.030Z,100.00
2022-09-07T23:37:09.858Z,100.00
2022-09-07T23:39:37.832Z,100.00
2022-09-07T23:42:05.934Z,100.00
2022-09-07T23:44:33.242Z,100.00
2022-09-07T23:47:00.014Z,100.00
2022-09-07T23:49:27.691Z,100.00
2022-09-07T23:51:56.410Z,100.00
2022-09-07T23:54:24.824Z,100.00
2022-09-07T23:56:52.534Z,100.00
2022-09-07T23:59:20.215Z,100.00
